Pagrindinis puslapis
METAR-TAF:

METAR-TAF

Oro uostai :

Sjenfuegosas, Kuba

platuma: 22-09N, ilguma: 080-24W, Aukštis: 39 m

Dabartinis oras

Ataskaita buvo paskelbta 57 minutes, ne 13:53 UTC
Vėjas 5 kt iš Rytų/Šiaurės Rytų
Temperatūra 22°C
Drėgmė 78%
Slėgis 1020 hPa
Matomumas 10 km arba daugiau
Išsisklaidę debesys ne aukštis 4000 ft

METAR: MUCF 211353Z 06005KT 9999 SCT040 22/18 Q1020

Laikas: 09:50 (14:50 UTC)

Prognozė

Ataskaita buvo paskelbta 3 valandos ir 50 minutes, ne 11:00 UTC
Prognozė galioja nuo 21 metu 12 UTC su 21 metu 24 UTC
Vėjas 3 kt nuo kintamojo kryptimis
Matomumas: 9000 m
Išsisklaidę debesys ne aukštis 2000 ft
Tapsmas
nuo 21 metu 15 UTC su 21 metu 17 UTC
Vėjas 10 kt iš Rytų

TAF: MUCF 211100Z 2112/2124 VRB03KT 9000 SCT020 BECMG 2115/2117 08010KT

Orai ataskaitas ir orų prognozės (METAR, TAF).

turimą stotys yra geltonos ir raudonos taškus žemėlapyje.

Perkelti pele per norėdami pamatyti stoties vardą.

Tada spustelėkite, norėdami matyti oro stebėjimo ir prognozės.

Norėdami pakeisti žemėlapį: spustelėkite ant žalios mygtukų su juodo kryžiaus žemyn,; žalią mygtuką su brūkšneliu, jei norite nutolinti; arba žalių rodyklių gretimoms žemėlapius.


METAR-TAF: